Time;durP1;ratioP1;P1;durP2;ratioP2;P2;SDS_P1;SDS_P2;PMS_P1;PMS_P2;Temp;Humidity;BMP_temperature;BMP_pressure;BME280_temperature;BME280_humidity;BME280_pressure;Samples;Min_cycle;Max_cycle;Signal;HPM_P1;HPM_P2
2023/01/21 00:01:17;;;;;;;9.73;2.97;;;-1.60;99.90;;;;;;4982754;28;20027;-92
2023/01/21 00:03:44;;;;;;;9.10;2.63;;;-1.90;99.90;;;;;;4976543;28;20023;-91
2023/01/21 00:06:15;;;;;;;6.77;2.53;;;-1.90;99.90;;;;;;4978709;28;20030;-91
2023/01/21 00:08:41;;;;;;;8.90;3.50;;;-1.70;99.90;;;;;;4978735;28;20031;-92
2023/01/21 00:11:11;;;;;;;7.00;2.53;;;-1.90;99.90;;;;;;4977833;28;20034;-90
2023/01/21 00:13:37;;;;;;;8.33;2.80;;;-1.70;99.90;;;;;;4975737;28;20019;-91
2023/01/21 00:16:03;;;;;;;8.77;2.43;;;-1.60;99.90;;;;;;4975559;28;20025;-90
2023/01/21 00:18:29;;;;;;;8.20;2.77;;;-1.80;99.90;;;;;;4995215;28;20030;-91
2023/01/21 00:20:55;;;;;;;9.30;2.93;;;-1.80;99.90;;;;;;4975288;28;20023;-91
2023/01/21 00:23:21;;;;;;;4.80;2.30;;;-1.80;99.90;;;;;;4975563;28;20093;-91
2023/01/21 00:25:47;;;;;;;6.97;2.73;;;-1.20;99.90;;;;;;4974885;28;20053;-91
2023/01/21 00:28:12;;;;;;;7.47;3.03;;;-1.80;99.90;;;;;;4975022;28;20391;-92
2023/01/21 00:30:40;;;;;;;8.13;3.07;;;-1.60;99.90;;;;;;4975021;28;20053;-90
2023/01/21 00:33:09;;;;;;;7.30;2.60;;;-1.40;99.90;;;;;;4990906;28;20027;-90
2023/01/21 00:35:37;;;;;;;10.37;3.27;;;-1.80;99.90;;;;;;4982254;28;20037;-90
2023/01/21 00:38:03;;;;;;;11.93;2.50;;;-1.50;99.90;;;;;;4974879;28;20023;-91
2023/01/21 00:40:28;;;;;;;9.27;2.97;;;-1.70;99.90;;;;;;4974744;28;20042;-91
2023/01/21 00:42:54;;;;;;;7.37;3.10;;;-1.70;99.90;;;;;;4973934;28;20051;-90
2023/01/21 00:45:22;;;;;;;7.60;2.53;;;-1.70;99.90;;;;;;4974526;28;20027;-91
2023/01/21 00:47:48;;;;;;;9.90;2.50;;;-1.50;99.90;;;;;;4974493;28;20019;-92
2023/01/21 00:50:14;;;;;;;7.13;2.70;;;-1.60;99.90;;;;;;4974927;28;20406;-91
2023/01/21 00:52:39;;;;;;;5.10;2.07;;;-1.80;99.90;;;;;;4991939;28;20026;-91
2023/01/21 00:55:05;;;;;;;10.17;3.33;;;-1.80;99.90;;;;;;4991941;28;20030;-91
2023/01/21 00:57:31;;;;;;;9.63;2.90;;;-1.80;99.90;;;;;;4976702;28;20031;-91
2023/01/21 00:59:59;;;;;;;6.87;2.67;;;-1.70;99.90;;;;;;4975508;28;20026;-91
2023/01/21 01:02:25;;;;;;;9.33;2.90;;;-1.90;99.90;;;;;;4968430;28;20115;-90
2023/01/21 01:04:50;;;;;;;6.47;2.20;;;-1.60;99.90;;;;;;4998148;28;20023;-91
2023/01/21 01:07:19;;;;;;;5.67;2.27;;;-1.70;99.90;;;;;;4984694;28;20034;-91
2023/01/21 01:09:44;;;;;;;6.07;2.47;;;-1.60;99.90;;;;;;4986431;28;20026;-93
2023/01/21 01:12:10;;;;;;;7.80;2.73;;;-1.70;99.90;;;;;;4997161;28;20030;-91
2023/01/21 01:14:36;;;;;;;8.60;2.53;;;-1.80;99.90;;;;;;4972452;28;20019;-91
2023/01/21 01:17:01;;;;;;;5.43;2.83;;;-1.80;99.90;;;;;;4978022;28;20511;-92
2023/01/21 01:19:27;;;;;;;7.20;2.77;;;-1.60;99.90;;;;;;4973769;28;20031;-91
2023/01/21 01:21:53;;;;;;;7.57;2.50;;;-1.80;99.90;;;;;;4974811;28;20030;-91
2023/01/21 01:24:18;;;;;;;6.33;2.17;;;-1.80;99.90;;;;;;4974310;28;20054;-91
2023/01/21 01:26:44;;;;;;;7.13;2.20;;;-1.80;99.90;;;;;;4990852;28;20023;-91
2023/01/21 01:29:12;;;;;;;7.80;2.53;;;-1.70;99.90;;;;;;4974552;28;20026;-91
2023/01/21 01:31:42;;;;;;;8.30;2.93;;;-1.80;99.90;;;;;;4974529;28;20115;-91
2023/01/21 01:34:08;;;;;;;7.30;2.93;;;-1.70;99.90;;;;;;4990962;28;20395;-91
2023/01/21 01:36:33;;;;;;;7.60;2.83;;;-1.80;99.90;;;;;;4974348;28;20035;-91
2023/01/21 01:38:59;;;;;;;5.23;2.63;;;-1.90;99.90;;;;;;4972991;28;20035;-90
2023/01/21 01:41:28;;;;;;;5.37;2.47;;;-1.90;99.90;;;;;;4971999;28;20041;-89
2023/01/21 01:43:57;;;;;;;3.67;1.90;;;-1.70;99.90;;;;;;4972083;28;20019;-90
2023/01/21 01:46:26;;;;;;;4.90;2.10;;;-2.00;99.90;;;;;;4972896;28;20035;-90
2023/01/21 01:49:00;;;;;;;4.97;2.20;;;-2.10;99.90;;;;;;4984220;28;20479;-90
2023/01/21 01:51:40;;;;;;;3.93;2.10;;;-2.10;99.90;;;;;;4971836;28;20025;-90
2023/01/21 01:54:08;;;;;;;8.67;2.23;;;-2.10;99.90;;;;;;4972417;28;20023;-89
2023/01/21 01:56:39;;;;;;;6.87;2.43;;;-2.20;99.90;;;;;;4971980;28;20716;-90
2023/01/21 01:59:05;;;;;;;7.63;2.30;;;-2.20;99.90;;;;;;4973725;28;20023;-91
2023/01/21 02:01:30;;;;;;;5.90;2.27;;;-2.30;99.90;;;;;;4963349;28;20038;-90
2023/01/21 02:03:59;;;;;;;6.70;2.10;;;-2.30;99.90;;;;;;4969266;28;20019;-90
2023/01/21 02:06:26;;;;;;;6.43;2.70;;;-2.30;99.90;;;;;;4973358;28;20019;-90
2023/01/21 02:09:01;;;;;;;10.37;2.83;;;-2.30;99.90;;;;;;4972809;28;20475;-89
2023/01/21 02:11:26;;;;;;;4.20;1.90;;;-2.40;99.90;;;;;;4974522;28;20023;-90
2023/01/21 02:13:56;;;;;;;5.83;3.03;;;-2.40;99.90;;;;;;4978690;28;20510;-90
2023/01/21 02:16:43;;;;;;;5.30;2.57;;;-2.40;99.90;;;;;;4985470;28;20058;-90
2023/01/21 02:19:44;;;;;;;7.97;2.10;;;-2.40;99.90;;;;;;4985755;28;20546;-90
2023/01/21 02:22:22;;;;;;;4.97;1.73;;;-2.40;99.90;;;;;;4976016;28;20114;-90
2023/01/21 02:25:29;;;;;;;6.43;2.37;;;-2.50;99.90;;;;;;4977199;28;20011;-90
2023/01/21 02:28:11;;;;;;;5.80;1.97;;;-2.50;99.90;;;;;;4966016;28;20023;-90
2023/01/21 02:30:55;;;;;;;7.83;2.00;;;-2.30;99.90;;;;;;4975668;28;20458;-91
2023/01/21 02:33:35;;;;;;;9.37;2.77;;;-2.50;99.90;;;;;;4976648;28;20558;-90
2023/01/21 02:36:20;;;;;;;7.47;2.67;;;-2.50;99.90;;;;;;4972724;28;20062;-90
2023/01/21 02:39:07;;;;;;;4.73;1.70;;;-2.50;99.90;;;;;;4969098;28;20030;-90
2023/01/21 02:41:49;;;;;;;7.63;2.00;;;-2.50;99.90;;;;;;4975730;28;20034;-90
2023/01/21 02:44:41;;;;;;;4.07;1.77;;;-2.50;99.90;;;;;;4977522;28;20480;-90
2023/01/21 02:47:20;;;;;;;6.27;2.17;;;-2.60;99.90;;;;;;4974184;28;20039;-90
2023/01/21 02:49:58;;;;;;;4.83;1.90;;;-2.60;99.90;;;;;;4974608;28;20084;-91
2023/01/21 02:52:25;;;;;;;5.33;2.00;;;-2.50;99.90;;;;;;4975793;28;20026;-91
2023/01/21 02:54:54;;;;;;;4.63;2.23;;;-2.60;99.90;;;;;;4976470;28;20029;-90
2023/01/21 02:57:48;;;;;;;5.67;1.87;;;-2.50;99.90;;;;;;4975366;28;20037;-90
2023/01/21 03:00:19;;;;;;;5.47;2.13;;;-2.50;99.90;;;;;;4972541;28;20110;-90
2023/01/21 03:03:03;;;;;;;4.53;1.80;;;-2.50;99.90;;;;;;4975414;28;20088;-90
2023/01/21 03:05:47;;;;;;;4.23;1.90;;;-2.60;99.90;;;;;;4976114;28;20070;-90
2023/01/21 03:08:15;;;;;;;6.47;1.90;;;-2.60;99.90;;;;;;4980618;28;20027;-90
2023/01/21 03:11:07;;;;;;;5.53;1.93;;;-2.60;99.90;;;;;;4984818;28;20023;-91
2023/01/21 03:19:32;;;;;;;4.10;1.50;;;-2.40;99.90;;;;;;4987773;28;20049;-90
2023/01/21 03:22:01;;;;;;;4.53;1.73;;;-2.60;99.90;;;;;;4976308;28;20088;-91
2023/01/21 03:24:28;;;;;;;4.47;1.97;;;-2.60;99.90;;;;;;4975000;28;20038;-90
2023/01/21 03:26:56;;;;;;;4.57;1.97;;;-2.70;99.90;;;;;;4974953;28;20023;-90
2023/01/21 03:29:25;;;;;;;8.13;2.73;;;-2.60;99.90;;;;;;4974474;28;20034;-90
2023/01/21 03:31:58;;;;;;;5.57;2.23;;;-2.70;99.90;;;;;;4975084;28;20022;-91
2023/01/21 03:34:26;;;;;;;6.43;2.93;;;-2.60;99.90;;;;;;4976720;28;20022;-90
2023/01/21 03:37:16;;;;;;;6.03;1.97;;;-2.70;99.90;;;;;;4988813;28;20031;-91
2023/01/21 03:40:17;;;;;;;5.93;2.17;;;-2.70;99.90;;;;;;4975369;28;20031;-89
2023/01/21 03:42:46;;;;;;;6.57;1.73;;;-2.70;99.90;;;;;;4959810;28;20510;-91
2023/01/21 03:45:12;;;;;;;5.50;2.40;;;-2.70;99.90;;;;;;4973976;28;20035;-90
2023/01/21 03:47:43;;;;;;;8.70;2.53;;;-2.70;99.90;;;;;;4975334;28;20019;-89
2023/01/21 03:50:32;;;;;;;4.97;1.53;;;-2.70;99.90;;;;;;4976209;28;20479;-90
2023/01/21 03:52:58;;;;;;;5.53;1.90;;;-2.70;99.90;;;;;;4975133;28;20023;-90
2023/01/21 03:55:24;;;;;;;5.93;1.70;;;-2.70;99.90;;;;;;4973795;28;20023;-90
2023/01/21 03:57:50;;;;;;;4.40;1.63;;;-2.80;99.90;;;;;;4990862;28;20695;-89
2023/01/21 04:00:16;;;;;;;5.30;1.63;;;-2.80;99.90;;;;;;4976270;28;20026;-90
2023/01/21 04:02:42;;;;;;;6.33;1.93;;;-2.80;99.90;;;;;;4975005;28;20034;-90
2023/01/21 04:05:10;;;;;;;5.93;2.33;;;-2.80;99.90;;;;;;4976001;28;20027;-90
2023/01/21 04:07:36;;;;;;;5.13;2.03;;;-2.80;99.90;;;;;;4970263;28;20047;-90
2023/01/21 04:10:01;;;;;;;4.87;2.30;;;-2.90;99.90;;;;;;4989190;28;20031;-90
2023/01/21 04:12:27;;;;;;;7.40;2.33;;;-2.90;99.90;;;;;;4990138;28;20026;-90
2023/01/21 04:14:53;;;;;;;5.40;2.10;;;-3.00;99.90;;;;;;4990227;28;20030;-89
2023/01/21 04:17:19;;;;;;;5.47;1.77;;;-3.00;99.90;;;;;;4970731;28;20043;-90
2023/01/21 04:19:44;;;;;;;4.03;1.80;;;-2.90;99.90;;;;;;4973875;28;20145;-89
2023/01/21 04:22:11;;;;;;;4.87;1.67;;;-2.10;99.90;;;;;;4989721;28;20106;-89
2023/01/21 04:24:37;;;;;;;4.10;1.37;;;-2.20;99.90;;;;;;4975593;28;20022;-90
2023/01/21 04:27:02;;;;;;;4.63;1.37;;;-2.80;99.90;;;;;;4992227;28;20030;-90
2023/01/21 04:29:28;;;;;;;3.43;1.40;;;-3.00;99.90;;;;;;4975794;28;20077;-90
2023/01/21 04:31:54;;;;;;;5.10;1.87;;;-3.00;99.90;;;;;;4977881;28;20037;-90
2023/01/21 04:34:19;;;;;;;4.63;1.63;;;-3.00;99.90;;;;;;4976245;28;20039;-89
2023/01/21 04:36:45;;;;;;;5.57;1.77;;;-3.00;99.90;;;;;;4975749;28;20443;-89
2023/01/21 04:39:11;;;;;;;4.50;1.70;;;-3.00;99.90;;;;;;4974751;28;20031;-90
2023/01/21 04:41:36;;;;;;;5.03;2.00;;;-3.00;99.90;;;;;;4975096;28;20043;-90
2023/01/21 04:44:05;;;;;;;4.67;1.70;;;-3.00;99.90;;;;;;4975317;28;20049;-89
2023/01/21 04:46:30;;;;;;;5.83;2.00;;;-3.00;99.90;;;;;;4968695;28;20542;-90
2023/01/21 04:48:56;;;;;;;7.17;2.10;;;-3.00;99.90;;;;;;4973280;28;20023;-90
2023/01/21 04:51:21;;;;;;;4.90;1.57;;;-3.10;99.90;;;;;;4974084;28;20035;-90
2023/01/21 04:53:47;;;;;;;5.80;1.83;;;-3.00;99.90;;;;;;4974385;28;20022;-91
2023/01/21 04:56:15;;;;;;;7.00;1.70;;;-3.00;99.90;;;;;;4969709;28;20033;-90
2023/01/21 04:58:45;;;;;;;3.60;1.70;;;-3.10;99.90;;;;;;4974049;28;20034;-91
2023/01/21 05:01:11;;;;;;;4.33;1.77;;;-2.90;99.90;;;;;;4984105;28;20030;-91
2023/01/21 05:03:36;;;;;;;3.27;1.33;;;-3.10;99.90;;;;;;4991558;28;20038;-91
2023/01/21 05:06:02;;;;;;;4.37;1.70;;;-2.90;99.90;;;;;;4991373;28;20019;-90
2023/01/21 05:08:31;;;;;;;2.77;1.30;;;-2.90;99.90;;;;;;4985523;28;20051;-91
2023/01/21 05:10:56;;;;;;;2.93;1.07;;;-3.10;99.90;;;;;;4977093;28;20023;-90
2023/01/21 05:13:22;;;;;;;3.53;1.00;;;-3.10;99.90;;;;;;4978682;28;20573;-90
2023/01/21 05:15:48;;;;;;;4.53;1.70;;;-3.20;99.90;;;;;;4974232;28;20031;-91
2023/01/21 05:18:13;;;;;;;4.90;1.67;;;-3.20;99.90;;;;;;4963195;28;20557;-90
2023/01/21 05:20:39;;;;;;;3.13;1.37;;;-3.10;99.90;;;;;;4990767;28;20502;-90
2023/01/21 05:23:05;;;;;;;6.70;1.63;;;-3.20;99.90;;;;;;4974475;28;20047;-90
2023/01/21 05:25:30;;;;;;;4.27;1.50;;;-3.10;99.90;;;;;;4975037;28;20027;-90
2023/01/21 05:27:59;;;;;;;3.57;1.03;;;-3.10;99.90;;;;;;4976517;28;20019;-90
2023/01/21 05:30:25;;;;;;;3.60;1.33;;;-3.00;99.90;;;;;;4974056;28;20052;-89
2023/01/21 05:32:54;;;;;;;3.73;1.20;;;-2.90;99.90;;;;;;4972213;28;20027;-90
2023/01/21 05:35:22;;;;;;;3.00;1.20;;;-2.90;99.90;;;;;;4972817;28;20042;-91
2023/01/21 05:37:47;;;;;;;3.53;1.43;;;-2.90;99.90;;;;;;4973853;28;20023;-89
2023/01/21 05:40:15;;;;;;;5.20;1.67;;;-3.00;99.90;;;;;;4972574;28;20081;-90
2023/01/21 05:42:41;;;;;;;3.93;1.53;;;-3.00;99.90;;;;;;4970439;28;20027;-90
2023/01/21 05:45:07;;;;;;;4.70;1.60;;;-3.00;99.90;;;;;;4985080;28;20546;-90
2023/01/21 05:47:33;;;;;;;6.40;1.60;;;-3.10;99.90;;;;;;4969002;28;20024;-90
2023/01/21 05:49:58;;;;;;;5.57;2.50;;;-3.10;99.90;;;;;;4970176;28;20383;-90
2023/01/21 05:52:24;;;;;;;6.93;1.83;;;-3.10;99.90;;;;;;4964753;28;20526;-91
2023/01/21 05:54:52;;;;;;;5.00;1.40;;;-3.10;99.90;;;;;;4972626;28;20483;-90
2023/01/21 05:57:18;;;;;;;7.33;1.70;;;-3.10;99.90;;;;;;4987844;28;20034;-90
2023/01/21 05:59:44;;;;;;;8.03;2.63;;;-3.00;99.90;;;;;;4972037;28;20077;-90
2023/01/21 06:02:09;;;;;;;4.83;1.83;;;-3.00;99.90;;;;;;4987592;28;20039;-90
2023/01/21 06:04:35;;;;;;;4.90;2.20;;;-3.00;99.90;;;;;;4988143;28;20022;-90
2023/01/21 06:07:01;;;;;;;7.20;2.23;;;-2.90;99.90;;;;;;4970341;28;20376;-90
2023/01/21 06:09:28;;;;;;;5.43;2.03;;;-3.00;99.90;;;;;;4966641;28;20047;-90
2023/01/21 06:11:54;;;;;;;6.57;2.27;;;-3.00;99.90;;;;;;4981156;28;20210;-91
2023/01/21 06:14:25;;;;;;;7.70;2.77;;;-3.00;99.90;;;;;;4996673;28;20054;-90
2023/01/21 06:16:50;;;;;;;7.90;3.23;;;-3.00;99.90;;;;;;4987702;28;20121;-90
2023/01/21 06:19:16;;;;;;;10.10;3.50;;;-3.00;99.90;;;;;;4974750;28;20566;-91
2023/01/21 06:21:43;;;;;;;6.63;2.97;;;-2.80;99.90;;;;;;4968825;28;20639;-90
2023/01/21 06:24:10;;;;;;;6.77;3.27;;;-3.10;99.90;;;;;;4987835;28;20055;-90
2023/01/21 06:26:36;;;;;;;7.13;3.13;;;-3.10;99.90;;;;;;4972045;28;20106;-90
2023/01/21 06:29:02;;;;;;;8.23;3.70;;;-3.10;99.90;;;;;;4972842;28;20061;-90
2023/01/21 06:31:27;;;;;;;9.60;3.00;;;-3.10;99.90;;;;;;4971646;28;20027;-90
2023/01/21 06:33:53;;;;;;;9.03;3.03;;;-3.10;99.90;;;;;;4971626;28;20185;-90
2023/01/21 06:36:20;;;;;;;7.87;3.10;;;-3.10;99.90;;;;;;4971990;28;20738;-91
2023/01/21 06:38:45;;;;;;;8.50;2.83;;;-3.10;99.90;;;;;;4992024;28;20035;-91
2023/01/21 06:41:11;;;;;;;10.03;3.27;;;-3.00;99.90;;;;;;4974605;28;20122;-92
2023/01/21 06:43:38;;;;;;;9.80;2.83;;;-3.00;99.90;;;;;;4981641;28;20081;-91
2023/01/21 06:46:04;;;;;;;9.90;3.30;;;-2.90;99.90;;;;;;4975209;28;20035;-91
2023/01/21 06:48:30;;;;;;;9.57;3.20;;;-3.00;99.90;;;;;;4966873;28;20487;-91
2023/01/21 06:50:55;;;;;;;11.47;4.37;;;-3.00;99.90;;;;;;4975197;28;20413;-91
2023/01/21 06:53:21;;;;;;;8.90;2.70;;;-3.10;99.90;;;;;;4973507;28;20042;-92
2023/01/21 06:55:49;;;;;;;10.40;3.77;;;-3.10;99.90;;;;;;4974817;28;20039;-91
2023/01/21 06:58:17;;;;;;;10.50;3.43;;;-3.10;99.90;;;;;;4980616;28;20105;-91
2023/01/21 07:00:47;;;;;;;10.83;3.67;;;-3.20;99.90;;;;;;4978953;28;20476;-91
2023/01/21 07:03:13;;;;;;;11.40;3.37;;;-3.10;99.90;;;;;;4978624;28;20030;-92
2023/01/21 07:05:41;;;;;;;8.03;3.57;;;-3.10;99.90;;;;;;4978353;28;20050;-92
2023/01/21 07:08:07;;;;;;;8.60;3.50;;;-3.10;99.90;;;;;;4994578;28;20491;-92
2023/01/21 07:10:35;;;;;;;12.47;3.80;;;-3.10;99.90;;;;;;4978187;28;20027;-92
2023/01/21 07:13:04;;;;;;;9.70;3.10;;;-3.00;99.90;;;;;;4977926;28;20027;-91
2023/01/21 07:15:38;;;;;;;12.43;3.27;;;-3.10;99.90;;;;;;4977865;28;20029;-92
2023/01/21 07:18:04;;;;;;;9.77;3.73;;;-3.00;99.90;;;;;;4995986;28;20050;-92
2023/01/21 07:20:55;;;;;;;12.30;3.87;;;-3.00;99.90;;;;;;4978210;28;20038;-91
2023/01/21 07:23:32;;;;;;;9.90;4.03;;;-3.00;99.90;;;;;;4976063;28;20558;-92
2023/01/21 07:25:58;;;;;;;12.33;4.13;;;-3.00;99.90;;;;;;4979320;28;20022;-92
2023/01/21 07:28:26;;;;;;;11.43;4.30;;;-3.00;99.90;;;;;;4994344;28;20584;-91
2023/01/21 07:31:01;;;;;;;12.77;4.13;;;-2.90;99.90;;;;;;4990718;28;20026;-92
2023/01/21 07:33:27;;;;;;;12.10;4.43;;;-2.80;99.90;;;;;;4978063;28;20475;-92
2023/01/21 07:35:56;;;;;;;10.37;4.90;;;-3.00;99.90;;;;;;4977287;28;20747;-91
2023/01/21 07:38:21;;;;;;;12.17;4.70;;;-3.00;99.90;;;;;;4998029;28;20022;-92
2023/01/21 07:40:56;;;;;;;14.10;4.00;;;-3.00;99.90;;;;;;4977804;28;20030;-92
2023/01/21 07:43:26;;;;;;;9.87;3.37;;;-2.90;99.90;;;;;;4993331;28;20034;-92
2023/01/21 07:46:01;;;;;;;11.90;4.80;;;-3.00;99.90;;;;;;4973732;28;20038;-92
2023/01/21 07:48:30;;;;;;;13.57;3.93;;;-2.90;99.90;;;;;;4974787;28;20135;-93
2023/01/21 07:50:57;;;;;;;12.77;4.00;;;-3.00;99.90;;;;;;4976507;28;20047;-92
2023/01/21 07:53:26;;;;;;;18.40;4.23;;;-3.00;99.90;;;;;;4970497;28;20089;-91
2023/01/21 07:55:52;;;;;;;11.03;4.77;;;-3.00;99.90;;;;;;4981684;28;20483;-92
2023/01/21 07:58:18;;;;;;;12.73;3.90;;;-2.90;99.90;;;;;;4993586;28;20034;-91
2023/01/21 08:00:50;;;;;;;11.20;3.33;;;-2.90;99.90;;;;;;4976827;28;20026;-92
2023/01/21 08:03:18;;;;;;;13.27;3.65;;;-2.80;99.90;;;;;;4977633;28;20022;-91
2023/01/21 08:05:49;;;;;;;12.00;4.50;;;-2.90;99.90;;;;;;4977544;28;20026;-91
2023/01/21 08:08:32;;;;;;;11.97;4.27;;;-2.70;99.90;;;;;;4975577;28;20085;-91
2023/01/21 08:11:07;;;;;;;12.00;3.63;;;-2.60;99.90;;;;;;4973453;28;20125;-86
2023/01/21 08:13:36;;;;;;;17.37;4.87;;;-2.70;99.90;;;;;;4988664;28;20033;-88
2023/01/21 08:16:01;;;;;;;12.90;4.00;;;-2.60;99.90;;;;;;4966026;28;20035;-88
2023/01/21 08:18:27;;;;;;;12.80;4.40;;;-2.60;99.90;;;;;;4973390;28;20029;-88
2023/01/21 08:20:56;;;;;;;10.03;3.67;;;-2.60;99.90;;;;;;4972371;28;20023;-88
2023/01/21 08:23:22;;;;;;;16.17;5.67;;;-2.60;99.90;;;;;;4973344;28;20106;-88
2023/01/21 08:25:48;;;;;;;13.30;4.60;;;-2.50;99.90;;;;;;4966757;28;20114;-87
2023/01/21 08:28:14;;;;;;;14.57;4.03;;;-2.40;99.90;;;;;;4986290;28;20026;-88
2023/01/21 08:30:39;;;;;;;13.83;3.87;;;-2.40;99.90;;;;;;4978744;28;20030;-87
2023/01/21 08:33:05;;;;;;;16.30;4.33;;;-2.40;99.90;;;;;;4982523;28;20111;-88
2023/01/21 08:35:30;;;;;;;14.30;5.00;;;-2.40;99.90;;;;;;4982355;28;20034;-86
2023/01/21 08:37:56;;;;;;;13.23;3.80;;;-2.30;99.90;;;;;;4988556;28;20027;-87
2023/01/21 08:40:25;;;;;;;11.63;4.50;;;-2.30;99.90;;;;;;4987258;28;20070;-89
2023/01/21 08:42:51;;;;;;;16.57;4.93;;;-2.30;99.90;;;;;;4973728;28;20066;-88
2023/01/21 08:45:17;;;;;;;13.90;3.93;;;-2.20;99.90;;;;;;4973383;28;20027;-88
2023/01/21 08:47:42;;;;;;;15.60;4.30;;;-2.20;99.90;;;;;;4977161;28;20129;-88
2023/01/21 08:50:09;;;;;;;14.50;5.30;;;-2.20;99.90;;;;;;4973373;28;20455;-89
2023/01/21 08:52:37;;;;;;;12.03;4.17;;;-2.20;99.90;;;;;;4971053;28;20035;-87
2023/01/21 08:55:02;;;;;;;12.97;5.40;;;-2.10;99.90;;;;;;4968250;28;20096;-86
2023/01/21 08:57:28;;;;;;;10.10;4.37;;;-2.10;99.90;;;;;;4968251;28;20122;-86
2023/01/21 08:59:54;;;;;;;13.93;5.30;;;-1.90;99.90;;;;;;4969785;28;20055;-86
2023/01/21 09:02:19;;;;;;;11.00;3.63;;;-1.90;99.90;;;;;;4969243;28;20510;-86
2023/01/21 09:04:45;;;;;;;13.47;5.03;;;-1.90;99.90;;;;;;4968676;28;20042;-85
2023/01/21 09:07:11;;;;;;;16.27;4.77;;;-1.80;99.90;;;;;;4970290;28;20041;-86
2023/01/21 09:09:36;;;;;;;16.43;5.53;;;-1.80;99.90;;;;;;4972793;28;20025;-86
2023/01/21 09:12:05;;;;;;;16.70;5.33;;;-1.70;99.90;;;;;;4971769;28;20120;-86
2023/01/21 09:14:30;;;;;;;12.57;4.60;;;-1.60;99.90;;;;;;4972759;28;20031;-86
2023/01/21 09:16:56;;;;;;;18.83;5.17;;;-1.60;99.90;;;;;;4974732;28;20509;-86
2023/01/21 09:19:22;;;;;;;15.47;4.57;;;-1.60;99.90;;;;;;4973351;28;20066;-86
2023/01/21 09:21:48;;;;;;;17.57;4.97;;;-1.50;99.90;;;;;;4968228;28;20130;-84
2023/01/21 09:24:15;;;;;;;11.90;4.57;;;-1.40;99.90;;;;;;4973295;28;20499;-86
2023/01/21 09:26:44;;;;;;;13.87;5.10;;;-1.30;99.90;;;;;;4970972;28;20016;-86
2023/01/21 09:29:09;;;;;;;11.23;3.43;;;-1.20;99.90;;;;;;4981999;28;20724;-86
2023/01/21 09:31:35;;;;;;;14.63;4.40;;;-1.20;99.90;;;;;;4969922;28;20023;-86
2023/01/21 09:34:03;;;;;;;11.73;3.83;;;-1.10;99.90;;;;;;4971446;28;20090;-86
2023/01/21 09:36:31;;;;;;;12.27;3.70;;;-1.10;99.90;;;;;;4971475;28;20090;-86
2023/01/21 09:38:58;;;;;;;11.53;4.17;;;-1.00;99.90;;;;;;4970093;28;20109;-86
2023/01/21 09:41:32;;;;;;;18.17;5.63;;;-1.10;99.90;;;;;;4975160;28;20129;-86
2023/01/21 09:44:32;;;;;;;13.37;5.00;;;-0.90;99.90;;;;;;4984937;28;20030;-86
2023/01/21 09:47:37;;;;;;;13.63;4.20;;;-0.90;99.90;;;;;;4983948;28;20114;-86
2023/01/21 09:50:08;;;;;;;14.53;3.70;;;-0.90;99.90;;;;;;4969094;28;20027;-85
2023/01/21 09:52:46;;;;;;;15.83;4.13;;;-1.00;99.90;;;;;;4962546;28;20522;-86
2023/01/21 09:55:16;;;;;;;16.03;4.87;;;-0.90;99.90;;;;;;4969432;28;20049;-86
2023/01/21 09:58:23;;;;;;;13.27;3.97;;;-0.80;99.90;;;;;;4965156;28;20030;-86
2023/01/21 10:00:56;;;;;;;14.27;4.13;;;-0.90;99.90;;;;;;4969992;28;20033;-86
2023/01/21 10:04:16;;;;;;;12.40;3.77;;;-1.00;99.90;;;;;;4970791;28;20058;-85
2023/01/21 10:07:13;;;;;;;11.93;4.33;;;-0.90;99.90;;;;;;4958737;28;20097;-87
2023/01/21 10:10:03;;;;;;;11.73;4.20;;;-0.90;99.90;;;;;;4958735;28;20039;-86
2023/01/21 10:13:31;;;;;;;12.93;3.90;;;-0.90;99.90;;;;;;4971861;28;20884;-86
2023/01/21 10:16:06;;;;;;;9.37;3.23;;;-0.90;99.90;;;;;;4950087;28;20042;-86
2023/01/21 10:18:35;;;;;;;11.53;3.67;;;-0.90;99.90;;;;;;4946551;28;20050;-87
2023/01/21 10:21:12;;;;;;;13.53;3.90;;;-0.80;99.90;;;;;;4952494;28;20035;-87
2023/01/21 10:23:49;;;;;;;10.53;3.67;;;-0.80;99.90;;;;;;4981193;28;20032;-86
2023/01/21 10:26:15;;;;;;;10.67;4.17;;;-0.80;99.90;;;;;;4966572;28;20034;-86
2023/01/21 10:28:49;;;;;;;13.93;4.37;;;-0.90;99.90;;;;;;4971906;28;20023;-86
2023/01/21 10:31:14;;;;;;;12.77;3.90;;;-1.00;99.90;;;;;;4971440;28;20022;-86
2023/01/21 10:33:40;;;;;;;14.77;4.73;;;-1.00;99.90;;;;;;4973873;28;20038;-86
2023/01/21 10:36:45;;;;;;;13.93;5.03;;;-1.00;99.90;;;;;;4988894;28;20031;-86
2023/01/21 10:39:37;;;;;;;13.37;4.93;;;-1.00;99.90;;;;;;4966151;28;20041;-86
2023/01/21 10:42:21;;;;;;;11.60;3.70;;;-1.10;99.90;;;;;;4971362;28;20037;-86
2023/01/21 10:45:26;;;;;;;9.20;3.40;;;-1.10;99.90;;;;;;4971991;28;20106;-86
2023/01/21 10:48:31;;;;;;;12.77;3.97;;;-1.00;99.90;;;;;;4980911;28;20039;-86
2023/01/21 10:51:31;;;;;;;16.47;4.00;;;-1.10;99.90;;;;;;4968092;28;20027;-86
2023/01/21 10:54:21;;;;;;;10.60;4.57;;;-1.10;99.90;;;;;;4931362;28;20434;-87
2023/01/21 10:57:05;;;;;;;15.07;4.60;;;-1.00;99.90;;;;;;4974269;28;20557;-86
2023/01/21 10:59:34;;;;;;;9.97;3.27;;;-1.00;99.90;;;;;;4971532;28;20134;-86
2023/01/21 11:02:23;;;;;;;12.00;3.53;;;-0.90;99.90;;;;;;4973377;28;20125;-87
2023/01/21 11:04:50;;;;;;;11.87;3.43;;;-0.80;99.90;;;;;;4973396;28;20495;-87
2023/01/21 11:07:19;;;;;;;12.87;4.50;;;-0.80;99.90;;;;;;4989938;28;20031;-86
2023/01/21 11:09:46;;;;;;;14.43;5.50;;;-0.60;99.90;;;;;;4973743;28;20035;-86
2023/01/21 11:12:17;;;;;;;12.20;3.90;;;-0.70;99.90;;;;;;4973228;28;20050;-87
2023/01/21 11:14:52;;;;;;;7.93;3.17;;;-0.70;99.90;;;;;;4973294;28;20443;-87
2023/01/21 11:17:36;;;;;;;9.97;3.93;;;-0.80;99.90;;;;;;4974810;28;20115;-87
2023/01/21 11:20:13;;;;;;;13.10;3.83;;;-0.80;99.90;;;;;;4969861;28;20090;-86
2023/01/21 11:22:45;;;;;;;12.30;4.50;;;-0.80;99.90;;;;;;4970004;28;20042;-86
2023/01/21 11:25:30;;;;;;;9.43;3.47;;;-0.80;99.90;;;;;;4989868;28;20065;-86
2023/01/21 11:27:56;;;;;;;15.77;3.87;;;-0.80;99.90;;;;;;4973720;28;20026;-86
2023/01/21 11:30:36;;;;;;;12.20;4.67;;;-0.90;99.90;;;;;;4975872;28;20050;-85
2023/01/21 11:33:32;;;;;;;12.27;4.17;;;-0.90;99.90;;;;;;4968946;28;20056;-87
2023/01/21 11:36:09;;;;;;;9.13;3.33;;;-0.90;99.90;;;;;;4958283;28;20031;-87
2023/01/21 11:38:35;;;;;;;10.23;3.07;;;-0.90;99.90;;;;;;4972196;28;20063;-87
2023/01/21 11:41:05;;;;;;;12.80;4.50;;;-0.90;99.90;;;;;;4976140;28;20141;-87
2023/01/21 11:43:43;;;;;;;12.57;4.83;;;-0.90;99.90;;;;;;4984761;28;20122;-87
2023/01/21 11:46:36;;;;;;;12.07;4.20;;;-0.90;99.90;;;;;;4974990;28;20109;-86
2023/01/21 11:49:05;;;;;;;10.00;3.43;;;-0.80;99.90;;;;;;4996601;23;20945;-86
2023/01/21 11:51:39;;;;;;;8.93;3.83;;;-0.80;99.90;;;;;;4980591;28;20113;-85
2023/01/21 11:54:30;;;;;;;10.40;3.93;;;-0.80;99.90;;;;;;4992576;28;20126;-85
2023/01/21 11:57:06;;;;;;;7.00;3.03;;;-0.90;99.90;;;;;;4983831;28;20570;-84
2023/01/21 11:59:59;;;;;;;12.23;3.30;;;-1.00;99.90;;;;;;4987593;28;20022;-85
2023/01/21 12:03:25;;;;;;;;;;;;;;;;;;;;;
2023/01/21 12:06:50;;;;;;;;;;;;;;;;;;;;;
2023/01/21 12:09:27;;;;;;;12.47;3.93;;;-0.70;99.90;;;;;;4983393;28;20531;-86
2023/01/21 12:16:19;;;;;;;10.63;3.97;;;-0.70;99.90;;;;;;4994391;28;20054;-86
2023/01/21 12:19:20;;;;;;;10.70;2.90;;;-0.60;99.90;;;;;;4989879;28;20038;-86
2023/01/21 12:55:25;;;;;;;7.50;3.07;;;-0.80;99.90;;;;;;5051635;23;20054;-88
2023/01/21 13:09:17;;;;;;;;;;;;;;;;;;;;;
2023/01/21 13:19:28;;;;;;;8.40;2.90;;;-1.00;99.90;;;;;;4988564;28;20024;-86
2023/01/21 13:23:28;;;;;;;;;;;;;;;;;;;;;
2023/01/21 14:07:36;;;;;;;10.93;2.73;;;-0.80;99.90;;;;;;5013160;28;20033;-86
2023/01/21 14:14:29;;;;;;;;;;;;;;;;;;;;;
2023/01/21 16:15:18;;;;;;;10.10;2.60;;;-1.30;99.90;;;;;;4997686;28;20037;-90
2023/01/21 16:18:54;;;;;;;;;;;;;;;;;;;;;
2023/01/21 16:22:42;;;;;;;;;;;;;;;;;;;;;
2023/01/21 16:26:04;;;;;;;;;;;;;;;;;;;;;
2023/01/21 16:32:17;;;;;;;8.47;2.50;;;-1.20;99.90;;;;;;5071639;23;20042;-89
2023/01/21 16:34:59;;;;;;;11.67;2.70;;;-1.30;99.90;;;;;;4937895;29;20042;-86
2023/01/21 16:37:50;;;;;;;;;;;;;;;;;;;;;
2023/01/21 16:41:36;;;;;;;12.27;3.07;;;-1.30;99.90;;;;;;4963331;28;19960;-85
2023/01/21 16:44:17;;;;;;;7.07;2.37;;;-1.40;99.90;;;;;;4935770;28;20114;-87
2023/01/21 16:51:32;;;;;;;;;;;;;;;;;;;;;
2023/01/21 17:04:03;;;;;;;6.37;2.23;;;-1.30;99.90;;;;;;5131235;22;20129;-86
2023/01/21 17:27:11;;;;;;;6.10;1.70;;;-1.30;99.90;;;;;;4890465;29;20473;-88
2023/01/21 17:30:18;;;;;;;7.63;2.63;;;-1.30;99.90;;;;;;4904763;29;20031;-89
2023/01/21 17:33:07;;;;;;;6.20;1.83;;;-1.30;99.90;;;;;;4949244;28;20035;-89
2023/01/21 17:36:20;;;;;;;8.17;2.50;;;-1.30;99.90;;;;;;4973923;28;20043;-86
2023/01/21 17:38:48;;;;;;;7.03;2.73;;;-1.30;99.90;;;;;;4987956;28;20054;-86
2023/01/21 17:41:36;;;;;;;4.87;1.80;;;-1.40;99.90;;;;;;4967057;28;20415;-87
2023/01/21 17:44:35;;;;;;;10.53;2.23;;;-1.30;99.90;;;;;;4964649;28;20042;-88
2023/01/21 17:47:46;;;;;;;6.60;2.47;;;-1.30;99.90;;;;;;4970034;28;20410;-88
2023/01/21 17:57:13;;;;;;;8.10;1.97;;;-1.40;99.90;;;;;;4941748;28;20129;-89
2023/01/21 18:00:27;;;;;;;10.17;2.73;;;-1.30;99.90;;;;;;4934325;28;20023;-89
2023/01/21 18:02:47;;;;;;;4.43;1.90;;;-1.30;99.90;;;;;;4973074;28;20043;-88